createdAt,value
2023-02-11T00:01:29.452Z,-1.62
2023-02-11T00:04:07.641Z,-1.77
2023-02-11T00:06:35.593Z,-1.76
2023-02-11T00:09:02.160Z,-1.74
2023-02-11T00:11:32.008Z,-1.73
2023-02-11T00:14:05.293Z,-1.68
2023-02-11T00:16:32.285Z,-1.65
2023-02-11T00:19:07.709Z,-1.59
2023-02-11T00:21:36.861Z,-1.44
2023-02-11T00:24:08.447Z,-1.46
2023-02-11T00:26:36.387Z,-1.45
2023-02-11T00:29:05.117Z,-1.35
2023-02-11T00:31:34.768Z,-1.37
2023-02-11T00:34:02.215Z,-1.20
2023-02-11T00:36:32.186Z,-1.19
2023-02-11T00:39:02.391Z,-1.18
2023-02-11T00:41:34.075Z,-1.03
2023-02-11T00:44:04.817Z,-1.02
2023-02-11T00:46:42.431Z,-0.95
2023-02-11T00:49:11.281Z,-0.95
2023-02-11T00:51:40.786Z,-0.90
2023-02-11T00:54:07.270Z,-0.89
2023-02-11T00:56:33.968Z,-0.84
2023-02-11T00:59:00.569Z,-0.87
2023-02-11T01:01:27.108Z,-0.83
2023-02-11T01:03:53.895Z,-0.81
2023-02-11T01:06:20.547Z,-0.79
2023-02-11T01:08:47.113Z,-0.68
2023-02-11T01:11:19.537Z,-0.65
2023-02-11T01:13:49.041Z,-0.68
2023-02-11T01:16:20.018Z,-0.65
2023-02-11T01:18:47.087Z,-0.75
2023-02-11T01:21:16.895Z,-0.75
2023-02-11T01:23:45.895Z,-0.79
2023-02-11T01:26:12.674Z,-0.81
2023-02-11T01:28:40.150Z,-0.78
2023-02-11T01:31:08.139Z,-0.84
2023-02-11T01:33:34.701Z,-0.76
2023-02-11T01:36:12.263Z,-0.73
2023-02-11T01:38:40.935Z,-0.70
2023-02-11T01:41:14.671Z,-0.68
2023-02-11T01:43:48.735Z,-0.59
2023-02-11T01:46:36.062Z,-0.53
2023-02-11T01:49:19.400Z,-0.49
2023-02-11T01:51:53.858Z,-0.49
2023-02-11T01:54:43.404Z,-0.45
2023-02-11T01:57:25.269Z,-0.40
2023-02-11T02:00:01.531Z,-0.40
2023-02-11T02:02:42.586Z,-0.30
2023-02-11T02:05:35.641Z,-0.28
2023-02-11T02:08:37.283Z,-0.27
2023-02-11T02:11:14.052Z,-0.27
2023-02-11T02:13:40.741Z,-0.26
2023-02-11T02:16:12.591Z,-0.22
2023-02-11T02:19:10.445Z,-0.21
2023-02-11T02:22:00.570Z,-0.28
2023-02-11T02:25:01.112Z,-0.35
2023-02-11T02:28:08.431Z,-0.43
2023-02-11T02:31:00.196Z,-0.41
2023-02-11T02:33:59.636Z,-0.55
2023-02-11T02:36:50.846Z,-0.57
2023-02-11T02:39:33.616Z,-0.59
2023-02-11T02:42:00.845Z,-0.61
2023-02-11T02:44:31.903Z,-0.61
2023-02-11T02:47:03.057Z,-0.66
2023-02-11T02:49:29.668Z,-0.56
2023-02-11T02:52:22.999Z,-0.54
2023-02-11T02:55:37.704Z,-0.54
2023-02-11T02:58:31.278Z,-0.58
2023-02-11T03:01:34.167Z,-0.60
2023-02-11T03:04:37.725Z,-0.50
2023-02-11T03:07:20.456Z,-0.53
2023-02-11T03:09:57.255Z,-0.57
2023-02-11T03:12:26.598Z,-0.57
2023-02-11T03:14:56.160Z,-0.61
2023-02-11T03:17:24.523Z,-0.55
2023-02-11T03:19:52.478Z,-0.55
2023-02-11T03:22:48.365Z,-0.47
2023-02-11T03:25:28.525Z,-0.40
2023-02-11T03:28:14.529Z,-0.44
2023-02-11T03:30:55.673Z,-0.43
2023-02-11T03:33:34.366Z,-0.39
2023-02-11T03:36:06.232Z,-0.48
2023-02-11T03:38:42.764Z,-0.54
2023-02-11T03:41:13.533Z,-0.52
2023-02-11T03:43:50.644Z,-0.43
2023-02-11T03:46:22.076Z,-0.30
2023-02-11T03:49:07.730Z,-0.26
2023-02-11T03:51:35.485Z,-0.30
2023-02-11T03:54:09.912Z,-0.31
2023-02-11T03:56:49.911Z,-0.23
2023-02-11T03:59:16.778Z,-0.25
2023-02-11T04:01:44.678Z,-0.22
2023-02-11T04:04:11.397Z,-0.21
2023-02-11T04:06:40.504Z,-0.24
2023-02-11T04:09:07.224Z,-0.20
2023-02-11T04:11:33.812Z,-0.16
2023-02-11T04:14:03.029Z,-0.15
2023-02-11T04:16:30.898Z,-0.12
2023-02-11T04:18:57.706Z,-0.04
2023-02-11T04:21:24.528Z,-0.03
2023-02-11T04:23:51.284Z,0.01
2023-02-11T04:26:20.919Z,0.05
2023-02-11T04:28:47.297Z,0.05
2023-02-11T04:31:16.237Z,0.09
2023-02-11T04:33:44.986Z,0.12
2023-02-11T04:36:11.950Z,0.13
2023-02-11T04:38:43.459Z,0.13
2023-02-11T04:41:14.606Z,0.15
2023-02-11T04:43:43.605Z,0.15
2023-02-11T04:46:10.109Z,0.09
2023-02-11T04:48:36.823Z,0.06
2023-02-11T04:51:12.138Z,0.05
2023-02-11T04:53:38.810Z,-0.05
2023-02-11T04:56:05.463Z,-0.04
2023-02-11T04:58:39.393Z,-0.12
2023-02-11T05:01:12.206Z,-0.07
2023-02-11T05:03:41.503Z,-0.08
2023-02-11T05:06:11.760Z,-0.17
2023-02-11T05:08:41.606Z,-0.23
2023-02-11T05:11:21.987Z,-0.30
2023-02-11T05:13:49.164Z,-0.28
2023-02-11T05:16:17.043Z,-0.28
2023-02-11T05:18:44.906Z,-0.23
2023-02-11T05:21:17.270Z,-0.34
2023-02-11T05:23:44.242Z,-0.31
2023-02-11T05:26:19.330Z,-0.43
2023-02-11T05:28:46.092Z,-0.43
2023-02-11T05:31:14.675Z,-0.36
2023-02-11T05:33:42.526Z,-0.41
2023-02-11T05:36:11.835Z,-0.50
2023-02-11T05:38:43.894Z,-0.44
2023-02-11T05:41:16.423Z,-0.47
2023-02-11T05:43:42.879Z,-0.51
2023-02-11T05:46:11.952Z,-0.43
2023-02-11T05:48:38.766Z,-0.44
2023-02-11T05:51:10.743Z,-0.47
2023-02-11T05:53:37.239Z,-0.42
2023-02-11T05:56:04.041Z,-0.46
2023-02-11T05:58:34.598Z,-0.50
2023-02-11T06:01:01.281Z,-0.51
2023-02-11T06:03:28.135Z,-0.43
2023-02-11T06:06:01.756Z,-0.50
2023-02-11T06:08:28.296Z,-0.37
2023-02-11T06:10:55.194Z,-0.33
2023-02-11T06:13:23.900Z,-0.33
2023-02-11T06:15:58.809Z,-0.35
2023-02-11T06:18:27.727Z,-0.39
2023-02-11T06:20:54.733Z,-0.24
2023-02-11T06:23:22.737Z,-0.35
2023-02-11T06:25:53.578Z,-0.31
2023-02-11T06:28:20.480Z,-0.33
2023-02-11T06:30:47.128Z,-0.40
2023-02-11T06:33:13.606Z,-0.37
2023-02-11T06:35:42.703Z,-0.41
2023-02-11T06:38:09.335Z,-0.49
2023-02-11T06:40:35.893Z,-0.56
2023-02-11T06:43:02.410Z,-0.62
2023-02-11T06:45:31.450Z,-0.57
2023-02-11T06:48:01.242Z,-0.54
2023-02-11T06:50:27.867Z,-0.58
2023-02-11T06:52:57.592Z,-0.51
2023-02-11T06:55:24.124Z,-0.63
2023-02-11T06:57:50.624Z,-0.67
2023-02-11T07:00:17.628Z,-0.55
2023-02-11T07:02:44.413Z,-0.69
2023-02-11T07:05:11.186Z,-0.71
2023-02-11T07:07:38.050Z,-0.72
2023-02-11T07:10:05.850Z,-0.70
2023-02-11T07:12:32.636Z,-0.67
2023-02-11T07:14:59.210Z,-0.68
2023-02-11T07:17:30.148Z,-0.69
2023-02-11T07:19:59.109Z,-0.76
2023-02-11T07:22:25.592Z,-0.78
2023-02-11T07:24:52.148Z,-0.77
2023-02-11T07:27:21.051Z,-0.87
2023-02-11T07:29:48.711Z,-0.85
2023-02-11T07:32:15.342Z,-0.80
2023-02-11T07:34:42.046Z,-0.81
2023-02-11T07:37:08.571Z,-0.79
2023-02-11T07:39:40.187Z,-0.58
2023-02-11T07:42:06.690Z,-0.65
2023-02-11T07:44:33.783Z,-0.57
2023-02-11T07:47:02.659Z,-0.61
2023-02-11T07:49:29.541Z,-0.56
2023-02-11T07:51:56.216Z,-0.55
2023-02-11T07:54:22.913Z,-0.52
2023-02-11T07:56:49.377Z,-0.46
2023-02-11T07:59:16.106Z,-0.44
2023-02-11T08:01:42.541Z,-0.43
2023-02-11T08:04:11.645Z,-0.36
2023-02-11T08:06:41.950Z,-0.35
2023-02-11T08:09:13.100Z,-0.26
2023-02-11T08:11:39.510Z,-0.21
2023-02-11T08:14:05.965Z,-0.10
2023-02-11T08:16:37.000Z,0.01
2023-02-11T08:19:06.475Z,0.20
2023-02-11T08:21:35.469Z,0.46
2023-02-11T08:24:03.492Z,0.48
2023-02-11T08:26:34.901Z,0.68
2023-02-11T08:29:05.282Z,0.94
2023-02-11T08:31:37.202Z,1.13
2023-02-11T08:34:03.908Z,1.32
2023-02-11T08:36:36.069Z,1.44
2023-02-11T08:39:18.112Z,1.66
2023-02-11T08:41:48.198Z,1.82
2023-02-11T08:44:14.687Z,2.01
2023-02-11T08:46:41.227Z,2.17
2023-02-11T08:49:07.743Z,2.43
2023-02-11T08:51:34.465Z,2.47
2023-02-11T08:54:01.362Z,2.47
2023-02-11T08:56:32.315Z,2.64
2023-02-11T08:58:58.786Z,2.81
2023-02-11T09:01:29.495Z,2.84
2023-02-11T09:03:57.218Z,2.96
2023-02-11T09:06:25.041Z,3.08
2023-02-11T09:08:58.364Z,3.18
2023-02-11T09:11:31.957Z,3.28
2023-02-11T09:13:59.033Z,3.27
2023-02-11T09:16:31.737Z,3.24
2023-02-11T09:19:03.080Z,3.31
2023-02-11T09:21:32.138Z,3.52
2023-02-11T09:23:58.930Z,3.63
2023-02-11T09:26:28.013Z,3.73
2023-02-11T09:28:57.105Z,3.78
2023-02-11T09:31:25.935Z,3.93
2023-02-11T09:33:55.604Z,4.11
2023-02-11T09:36:24.659Z,4.21
2023-02-11T09:38:52.133Z,4.36
2023-02-11T09:41:35.589Z,4.53
2023-02-11T09:44:08.964Z,4.68
2023-02-11T09:46:42.906Z,4.78
2023-02-11T09:49:19.924Z,4.88
2023-02-11T09:51:57.413Z,5.03
2023-02-11T09:54:55.929Z,5.24
2023-02-11T09:57:29.438Z,5.37
2023-02-11T09:59:57.622Z,5.56
2023-02-11T10:02:45.489Z,5.69
2023-02-11T10:05:20.599Z,5.78
2023-02-11T10:07:51.416Z,5.88
2023-02-11T10:10:36.844Z,5.84
2023-02-11T10:13:25.018Z,6.09
2023-02-11T10:16:00.700Z,6.21
2023-02-11T10:19:05.278Z,6.26
2023-02-11T10:21:51.473Z,6.40
2023-02-11T10:24:18.948Z,6.47
2023-02-11T10:26:46.697Z,6.73
2023-02-11T10:29:35.308Z,6.89
2023-02-11T10:32:15.738Z,6.98
2023-02-11T10:34:42.684Z,7.05
2023-02-11T10:37:13.300Z,7.02
2023-02-11T10:39:40.888Z,7.14
2023-02-11T10:42:12.190Z,7.23
2023-02-11T10:44:47.453Z,7.29
2023-02-11T10:47:25.381Z,7.34
2023-02-11T10:49:51.971Z,7.49
2023-02-11T10:52:23.975Z,7.65
2023-02-11T10:55:05.563Z,7.62
2023-02-11T10:57:42.808Z,7.58
2023-02-11T11:00:18.411Z,7.62
2023-02-11T11:02:46.679Z,7.88
2023-02-11T11:05:19.758Z,7.83
2023-02-11T11:08:16.245Z,7.74
2023-02-11T11:10:45.859Z,7.64
2023-02-11T11:13:39.852Z,7.41
2023-02-11T11:16:13.087Z,7.49
2023-02-11T11:18:44.144Z,7.61
2023-02-11T11:21:19.382Z,7.59
2023-02-11T11:24:03.635Z,7.75
2023-02-11T11:26:44.905Z,7.96
2023-02-11T11:29:18.946Z,8.04
2023-02-11T11:31:53.252Z,8.07
2023-02-11T11:34:30.164Z,8.03
2023-02-11T11:37:03.990Z,8.03
2023-02-11T11:39:34.260Z,8.06
2023-02-11T11:42:05.459Z,7.67
2023-02-11T11:44:37.631Z,7.50
2023-02-11T11:47:15.848Z,7.68
2023-02-11T11:50:16.256Z,7.71
2023-02-11T11:52:50.871Z,7.73
2023-02-11T11:55:20.068Z,7.67
2023-02-11T11:57:49.534Z,7.81
2023-02-11T12:00:30.490Z,7.86
2023-02-11T12:03:17.188Z,7.87
2023-02-11T12:05:58.579Z,7.92
2023-02-11T12:08:38.925Z,7.84
2023-02-11T12:11:20.040Z,7.91
2023-02-11T12:13:46.512Z,7.84
2023-02-11T12:16:28.546Z,7.94
2023-02-11T12:19:24.629Z,7.98
2023-02-11T12:22:26.962Z,7.94
2023-02-11T12:25:09.475Z,7.86
2023-02-11T12:27:41.747Z,7.92
2023-02-11T12:30:26.883Z,7.96
2023-02-11T12:33:05.581Z,7.86
2023-02-11T12:35:42.289Z,7.82
2023-02-11T12:38:28.929Z,7.77
2023-02-11T12:41:18.990Z,7.79
2023-02-11T12:43:45.695Z,7.85
2023-02-11T12:46:33.987Z,7.97
2023-02-11T12:49:37.077Z,8.04
2023-02-11T12:52:22.222Z,8.00
2023-02-11T12:55:02.442Z,8.05
2023-02-11T12:57:32.594Z,8.12
2023-02-11T13:00:18.413Z,8.18
2023-02-11T13:03:04.931Z,8.27
2023-02-11T13:05:40.806Z,8.39
2023-02-11T13:08:19.273Z,8.63
2023-02-11T13:10:47.864Z,8.74
2023-02-11T13:13:23.002Z,8.82
2023-02-11T13:15:58.730Z,8.92
2023-02-11T13:18:37.515Z,9.09
2023-02-11T13:21:16.485Z,9.00
2023-02-11T13:24:00.888Z,8.93
2023-02-11T13:26:51.701Z,9.07
2023-02-11T13:29:49.166Z,9.22
2023-02-11T13:32:15.977Z,9.03
2023-02-11T13:34:42.339Z,9.13
2023-02-11T13:37:40.960Z,9.18
2023-02-11T13:40:19.565Z,9.28
2023-02-11T13:42:56.056Z,9.15
2023-02-11T13:45:37.593Z,9.16
2023-02-11T13:48:21.765Z,9.35
2023-02-11T13:50:53.612Z,9.28
2023-02-11T13:53:25.830Z,9.33
2023-02-11T13:56:05.110Z,9.32
2023-02-11T13:58:31.588Z,9.21
2023-02-11T14:00:58.539Z,9.24
2023-02-11T14:03:45.934Z,9.25
2023-02-11T14:06:36.160Z,9.15
2023-02-11T14:09:28.899Z,9.02
2023-02-11T14:12:30.377Z,8.96
2023-02-11T14:15:07.838Z,8.84
2023-02-11T14:17:35.240Z,8.93
2023-02-11T14:20:04.610Z,8.82
2023-02-11T14:22:44.082Z,8.78
2023-02-11T14:25:22.439Z,8.66
2023-02-11T14:27:57.124Z,8.60
2023-02-11T14:30:35.097Z,8.54
2023-02-11T14:33:16.939Z,8.57
2023-02-11T14:36:13.144Z,8.66
2023-02-11T14:38:56.330Z,8.61
2023-02-11T14:41:28.509Z,8.57
2023-02-11T14:44:04.979Z,8.51
2023-02-11T14:46:38.038Z,8.49
2023-02-11T14:49:08.272Z,8.43
2023-02-11T14:51:43.024Z,8.41
2023-02-11T14:54:18.212Z,8.34
2023-02-11T14:57:04.713Z,8.33
2023-02-11T14:59:31.404Z,8.33
2023-02-11T15:02:00.414Z,8.29
2023-02-11T15:04:38.598Z,8.28
2023-02-11T15:07:12.024Z,8.30
2023-02-11T15:09:48.809Z,8.23
2023-02-11T15:12:48.968Z,8.17
2023-02-11T15:15:19.724Z,8.15
2023-02-11T15:17:46.646Z,8.11
2023-02-11T15:20:22.180Z,8.03
2023-02-11T15:22:54.318Z,7.98
2023-02-11T15:25:22.822Z,7.98
2023-02-11T15:27:57.582Z,7.97
2023-02-11T15:30:33.893Z,7.91
2023-02-11T15:33:05.326Z,7.87
2023-02-11T15:35:42.550Z,7.87
2023-02-11T15:38:15.480Z,7.83
2023-02-11T15:41:02.039Z,7.79
2023-02-11T15:43:48.914Z,7.73
2023-02-11T15:46:19.547Z,7.71
2023-02-11T15:48:57.403Z,7.69
2023-02-11T15:51:42.476Z,7.66
2023-02-11T15:54:18.992Z,7.60
2023-02-11T15:56:59.589Z,7.60
2023-02-11T15:59:33.091Z,7.56
2023-02-11T16:02:08.936Z,7.52
2023-02-11T16:04:38.295Z,7.47
2023-02-11T16:07:07.220Z,7.44
2023-02-11T16:09:35.926Z,7.42
2023-02-11T16:12:22.571Z,7.37
2023-02-11T16:14:49.531Z,7.34
2023-02-11T16:17:18.800Z,7.33
2023-02-11T16:19:50.841Z,7.26
2023-02-11T16:22:35.366Z,7.23
2023-02-11T16:25:02.574Z,7.19
2023-02-11T16:27:42.686Z,7.15
2023-02-11T16:30:32.474Z,7.11
2023-02-11T16:33:04.284Z,7.09
2023-02-11T16:35:31.351Z,7.13
2023-02-11T16:37:58.058Z,7.03
2023-02-11T16:40:29.954Z,7.02
2023-02-11T16:43:04.088Z,6.97
2023-02-11T16:45:31.704Z,7.00
2023-02-11T16:48:02.083Z,7.01
2023-02-11T16:50:30.203Z,6.97
2023-02-11T16:52:56.638Z,6.97
2023-02-11T16:55:22.975Z,6.90
2023-02-11T16:57:49.729Z,6.90
2023-02-11T17:00:17.220Z,6.87
2023-02-11T17:02:46.068Z,6.89
2023-02-11T17:05:19.927Z,6.91
2023-02-11T17:07:46.721Z,6.99
2023-02-11T17:10:20.356Z,6.95
2023-02-11T17:12:47.974Z,7.00
2023-02-11T17:15:14.487Z,7.02
2023-02-11T17:17:43.674Z,7.02
2023-02-11T17:20:16.129Z,7.02
2023-02-11T17:22:42.468Z,6.96
2023-02-11T17:25:11.584Z,6.93
2023-02-11T17:27:38.007Z,6.87
2023-02-11T17:30:05.560Z,6.82
2023-02-11T17:32:32.308Z,6.83
2023-02-11T17:34:58.941Z,6.75
2023-02-11T17:37:25.329Z,6.70
2023-02-11T17:39:52.069Z,6.66
2023-02-11T17:42:21.347Z,6.63
2023-02-11T17:44:47.898Z,6.58
2023-02-11T17:47:14.367Z,6.49
2023-02-11T17:49:41.276Z,6.47
2023-02-11T17:52:08.129Z,6.45
2023-02-11T17:54:34.677Z,6.50
2023-02-11T17:57:01.220Z,6.48
2023-02-11T17:59:31.603Z,6.46
2023-02-11T18:01:58.241Z,6.44
2023-02-11T18:04:24.884Z,6.43
2023-02-11T18:06:53.524Z,6.43
2023-02-11T18:09:20.328Z,6.45
2023-02-11T18:11:52.357Z,6.40
2023-02-11T18:14:20.078Z,6.42
2023-02-11T18:16:49.836Z,6.42
2023-02-11T18:19:22.368Z,6.35
2023-02-11T18:21:50.857Z,6.37
2023-02-11T18:24:18.266Z,6.37
2023-02-11T18:26:48.351Z,6.35
2023-02-11T18:29:15.002Z,6.24
2023-02-11T18:31:41.734Z,6.24
2023-02-11T18:34:10.512Z,6.22
2023-02-11T18:36:37.066Z,6.18
2023-02-11T18:39:04.959Z,6.15
2023-02-11T18:41:31.561Z,6.13
2023-02-11T18:43:58.796Z,6.16
2023-02-11T18:46:25.815Z,6.13
2023-02-11T18:48:55.953Z,6.10
2023-02-11T18:51:23.227Z,6.06
2023-02-11T18:53:49.804Z,6.09
2023-02-11T18:56:20.266Z,6.07
2023-02-11T18:58:47.923Z,6.07
2023-02-11T19:01:27.173Z,6.05
2023-02-11T19:03:58.346Z,6.01
2023-02-11T19:06:30.208Z,5.99
2023-02-11T19:09:01.699Z,5.95
2023-02-11T19:11:48.859Z,5.95
2023-02-11T19:14:27.016Z,5.93
2023-02-11T19:16:58.024Z,5.91
2023-02-11T19:19:29.947Z,5.86
2023-02-11T19:21:57.836Z,5.87
2023-02-11T19:24:28.913Z,5.86
2023-02-11T19:26:58.635Z,5.87
2023-02-11T19:29:25.698Z,5.84
2023-02-11T19:31:52.289Z,5.85
2023-02-11T19:34:19.955Z,5.87
2023-02-11T19:36:50.229Z,5.90
2023-02-11T19:39:16.903Z,5.94
2023-02-11T19:41:43.658Z,5.93
2023-02-11T19:44:10.751Z,5.95
2023-02-11T19:46:40.757Z,6.19
2023-02-11T19:49:14.410Z,6.09
2023-02-11T19:51:46.213Z,6.16
2023-02-11T19:54:13.016Z,6.20
2023-02-11T19:56:39.611Z,6.19
2023-02-11T19:59:09.303Z,6.12
2023-02-11T20:01:42.725Z,6.10
2023-02-11T20:04:20.746Z,6.05
2023-02-11T20:06:50.354Z,6.06
2023-02-11T20:09:17.096Z,6.03
2023-02-11T20:11:43.649Z,6.04
2023-02-11T20:14:15.839Z,6.00
2023-02-11T20:16:49.149Z,5.95
2023-02-11T20:19:25.669Z,5.94
2023-02-11T20:21:55.817Z,5.98
2023-02-11T20:24:23.844Z,5.97
2023-02-11T20:26:55.370Z,5.94
2023-02-11T20:29:23.061Z,5.92
2023-02-11T20:31:53.353Z,5.92
2023-02-11T20:34:21.813Z,5.94
2023-02-11T20:36:51.843Z,5.92
2023-02-11T20:39:18.947Z,5.92
2023-02-11T20:41:46.157Z,5.92
2023-02-11T20:44:15.603Z,5.89
2023-02-11T20:46:46.727Z,5.84
2023-02-11T20:49:15.524Z,5.85
2023-02-11T20:51:42.329Z,5.81
2023-02-11T20:54:17.214Z,5.80
2023-02-11T20:56:46.778Z,5.78
2023-02-11T20:59:18.369Z,5.75
2023-02-11T21:01:50.545Z,5.78
2023-02-11T21:04:20.633Z,5.80
2023-02-11T21:06:56.618Z,5.78
2023-02-11T21:09:26.325Z,5.80
2023-02-11T21:11:54.608Z,5.81
2023-02-11T21:14:22.863Z,5.88
2023-02-11T21:16:50.001Z,5.84
2023-02-11T21:19:16.639Z,5.81
2023-02-11T21:21:47.948Z,5.78
2023-02-11T21:24:15.149Z,5.80
2023-02-11T21:26:41.766Z,5.76
2023-02-11T21:29:09.366Z,5.75
2023-02-11T21:31:36.919Z,5.68
2023-02-11T21:34:04.084Z,5.66
2023-02-11T21:36:30.847Z,5.64
2023-02-11T21:38:58.376Z,5.60
2023-02-11T21:41:24.911Z,5.61
2023-02-11T21:43:52.111Z,5.58
2023-02-11T21:46:19.582Z,5.57
2023-02-11T21:48:46.502Z,5.57
2023-02-11T21:51:21.973Z,5.55
2023-02-11T21:53:52.464Z,5.56
2023-02-11T21:56:18.848Z,5.55
2023-02-11T21:58:46.526Z,5.54
2023-02-11T22:01:19.265Z,5.53
2023-02-11T22:03:46.026Z,5.52
2023-02-11T22:06:22.050Z,5.54
2023-02-11T22:08:50.076Z,5.58
2023-02-11T22:11:16.496Z,5.54
2023-02-11T22:13:45.364Z,5.54
2023-02-11T22:16:14.541Z,5.56
2023-02-11T22:18:42.004Z,5.61
2023-02-11T22:21:12.961Z,5.56
2023-02-11T22:23:40.144Z,5.57
2023-02-11T22:26:18.926Z,5.56
2023-02-11T22:28:45.819Z,5.56
2023-02-11T22:31:16.307Z,5.55
2023-02-11T22:33:44.233Z,5.58
2023-02-11T22:36:22.411Z,5.58
2023-02-11T22:38:49.455Z,5.62
2023-02-11T22:41:16.506Z,5.56
2023-02-11T22:43:43.786Z,5.54
2023-02-11T22:46:13.375Z,5.54
2023-02-11T22:48:40.401Z,5.55
2023-02-11T22:51:12.104Z,5.54
2023-02-11T22:53:38.896Z,5.64
2023-02-11T22:56:10.334Z,5.57
2023-02-11T22:58:37.131Z,5.56
2023-02-11T23:01:05.319Z,5.54
2023-02-11T23:03:33.253Z,5.55
2023-02-11T23:06:00.361Z,5.55
2023-02-11T23:08:32.922Z,5.53
2023-02-11T23:11:28.044Z,5.52
2023-02-11T23:13:55.384Z,5.57
2023-02-11T23:16:26.519Z,5.60
2023-02-11T23:18:53.306Z,5.56
2023-02-11T23:21:22.832Z,5.56
2023-02-11T23:23:53.767Z,5.56
2023-02-11T23:26:20.126Z,5.53
2023-02-11T23:28:50.416Z,5.52
2023-02-11T23:31:21.149Z,5.49
2023-02-11T23:33:50.801Z,5.49
2023-02-11T23:36:18.962Z,5.48
2023-02-11T23:38:46.062Z,5.46
2023-02-11T23:41:13.592Z,5.43
2023-02-11T23:43:40.370Z,5.42
2023-02-11T23:46:10.085Z,5.43
2023-02-11T23:48:37.572Z,5.40
2023-02-11T23:51:04.698Z,5.39
2023-02-11T23:53:31.078Z,5.38
2023-02-11T23:55:57.581Z,5.42
2023-02-11T23:58:26.301Z,5.45
